createdAt,value
2018-06-19T00:01:51.897Z,93459.17
2018-06-19T00:04:19.896Z,93468.12
2018-06-19T00:06:47.999Z,93464.64
2018-06-19T00:09:15.954Z,93459.68
2018-06-19T00:11:43.880Z,93457.73
2018-06-19T00:14:11.852Z,93453.09
2018-06-19T00:16:39.931Z,93450.92
2018-06-19T00:19:08.477Z,93452.39
2018-06-19T00:21:50.778Z,93454.30
2018-06-19T00:24:18.762Z,93452.14
2018-06-19T00:26:46.788Z,93453.20
2018-06-19T00:29:14.799Z,93451.66
2018-06-19T00:31:42.972Z,93452.97
2018-06-19T00:34:10.978Z,93449.62
2018-06-19T00:36:38.993Z,93450.92
2018-06-19T00:39:08.849Z,93454.61
2018-06-19T00:41:36.955Z,93452.09
2018-06-19T00:44:05.105Z,93453.77
2018-06-19T00:46:34.149Z,93453.01
2018-06-19T00:49:02.256Z,93453.49
2018-06-19T00:51:30.318Z,93457.78
2018-06-19T00:53:58.423Z,93452.06
2018-06-19T00:56:37.562Z,93457.42
2018-06-19T00:59:05.631Z,93458.00
2018-06-19T01:01:33.698Z,93460.38
2018-06-19T01:04:01.784Z,93460.77
2018-06-19T01:06:29.877Z,93466.34
2018-06-19T01:08:58.062Z,93458.97
2018-06-19T01:11:26.126Z,93457.06
2018-06-19T01:13:54.533Z,93466.44
2018-06-19T01:16:22.601Z,93460.77
2018-06-19T01:18:50.742Z,93464.80
2018-06-19T01:21:18.826Z,93466.31
2018-06-19T01:23:46.854Z,93460.59
2018-06-19T01:26:14.873Z,93457.85
2018-06-19T01:28:42.956Z,93450.20
2018-06-19T01:31:10.979Z,93455.35
2018-06-19T01:33:39.011Z,93452.55
2018-06-19T01:36:07.085Z,93454.95
2018-06-19T01:38:35.120Z,93458.70
2018-06-19T01:41:03.174Z,93456.69
2018-06-19T01:43:31.652Z,93464.91
2018-06-19T01:45:59.695Z,93465.27
2018-06-19T01:48:27.746Z,93479.83
2018-06-19T01:50:55.896Z,93473.89
2018-06-19T01:53:23.918Z,93474.23
2018-06-19T01:55:52.006Z,93479.22
2018-06-19T01:58:20.080Z,93478.73
2018-06-19T02:00:48.022Z,93482.05
2018-06-19T02:03:16.117Z,93479.22
2018-06-19T02:05:44.266Z,93488.62
2018-06-19T02:08:12.376Z,93488.41
2018-06-19T02:10:40.500Z,93493.74
2018-06-19T02:13:08.491Z,93490.05
2018-06-19T02:15:36.488Z,93493.65
2018-06-19T02:18:04.540Z,93490.66
2018-06-19T02:20:32.575Z,93493.28
2018-06-19T02:23:00.545Z,93488.16
2018-06-19T02:25:28.564Z,93490.56
2018-06-19T02:27:56.578Z,93487.73
2018-06-19T02:30:24.593Z,93486.88
2018-06-19T02:32:52.674Z,93491.99
2018-06-19T02:35:20.746Z,93495.34
2018-06-19T02:37:48.985Z,93497.25
2018-06-19T02:40:17.044Z,93506.39
2018-06-19T02:42:45.029Z,93504.98
2018-06-19T02:45:13.075Z,93505.59
2018-06-19T02:47:41.137Z,93506.08
2018-06-19T02:50:09.134Z,93502.97
2018-06-19T02:52:37.081Z,93507.50
2018-06-19T02:55:05.111Z,93507.72
2018-06-19T02:57:33.128Z,93507.98
2018-06-19T03:00:01.192Z,93509.41
2018-06-19T03:02:29.205Z,93516.16
2018-06-19T03:04:57.324Z,93517.84
2018-06-19T03:07:25.437Z,93525.42
2018-06-19T03:09:53.570Z,93518.42
2018-06-19T03:12:21.636Z,93516.84
2018-06-19T03:14:49.619Z,93511.98
2018-06-19T03:17:17.542Z,93511.47
2018-06-19T03:19:45.445Z,93510.38
2018-06-19T03:22:13.371Z,93514.05
2018-06-19T03:24:41.320Z,93507.01
2018-06-19T03:27:09.296Z,93510.92
2018-06-19T03:29:37.278Z,93505.88
2018-06-19T03:32:05.213Z,93509.59
2018-06-19T03:34:33.387Z,93513.30
2018-06-19T03:37:01.526Z,93516.33
2018-06-19T03:39:29.596Z,93515.72
2018-06-19T03:41:57.648Z,93518.14
2018-06-19T03:44:25.813Z,93517.00
2018-06-19T03:46:53.931Z,93519.14
2018-06-19T03:49:22.047Z,93520.77
2018-06-19T03:51:50.155Z,93525.34
2018-06-19T03:54:18.249Z,93527.92
2018-06-19T03:56:46.239Z,93525.52
2018-06-19T03:59:14.406Z,93529.06
2018-06-19T04:01:42.748Z,93535.89
2018-06-19T04:04:11.013Z,93538.19
2018-06-19T04:06:39.080Z,93540.13
2018-06-19T04:09:08.162Z,93537.50
2018-06-19T04:11:36.977Z,93538.06
2018-06-19T04:14:05.183Z,93539.64
2018-06-19T04:16:33.346Z,93542.08
2018-06-19T04:19:01.565Z,93544.08
2018-06-19T04:21:29.604Z,93539.77
2018-06-19T04:23:57.631Z,93542.33
2018-06-19T04:26:25.648Z,93544.08
2018-06-19T04:28:53.729Z,93547.94
2018-06-19T04:31:21.785Z,93546.70
2018-06-19T04:33:49.868Z,93548.08
2018-06-19T04:36:17.903Z,93551.57
2018-06-19T04:38:46.086Z,93553.28
2018-06-19T04:41:14.190Z,93550.52
2018-06-19T04:43:42.391Z,93553.67
2018-06-19T04:46:10.351Z,93557.41
2018-06-19T04:48:38.547Z,93559.36
2018-06-19T04:51:06.609Z,93554.70
2018-06-19T04:53:34.699Z,93562.52
2018-06-19T04:56:02.976Z,93569.20
2018-06-19T04:58:47.943Z,93573.64
2018-06-19T05:01:16.098Z,93563.91
2018-06-19T05:03:44.260Z,93566.31
2018-06-19T05:06:12.397Z,93574.12
2018-06-19T05:08:40.786Z,93580.21
2018-06-19T05:11:08.986Z,93578.63
2018-06-19T05:13:37.137Z,93579.38
2018-06-19T05:16:05.345Z,93580.61
2018-06-19T05:18:33.566Z,93582.27
2018-06-19T05:21:01.662Z,93589.95
2018-06-19T05:23:29.729Z,93595.05
2018-06-19T05:25:57.941Z,93593.04
2018-06-19T05:28:26.053Z,93597.43
2018-06-19T05:30:54.154Z,93602.58
2018-06-19T05:33:22.400Z,93592.45
2018-06-19T05:35:50.587Z,93600.13
2018-06-19T05:38:18.812Z,93602.30
2018-06-19T05:40:47.044Z,93608.01
2018-06-19T05:43:15.100Z,93613.77
2018-06-19T05:45:43.198Z,93609.75
2018-06-19T05:48:11.250Z,93607.02
2018-06-19T05:50:39.308Z,93614.14
2018-06-19T05:53:07.595Z,93612.67
2018-06-19T05:55:35.676Z,93619.80
2018-06-19T05:58:04.737Z,93625.73
2018-06-19T06:00:32.995Z,93623.30
2018-06-19T06:03:01.185Z,93625.45
2018-06-19T06:05:29.546Z,93626.42
2018-06-19T06:07:57.731Z,93624.06
2018-06-19T06:10:25.940Z,93626.20
2018-06-19T06:12:54.240Z,93621.43
2018-06-19T06:15:22.418Z,93621.47
2018-06-19T06:17:50.675Z,93631.20
2018-06-19T06:20:19.232Z,93638.66
2018-06-19T06:23:10.815Z,93640.79
2018-06-19T06:25:40.595Z,93640.25
2018-06-19T06:28:09.037Z,93639.76
2018-06-19T06:30:37.329Z,93644.92
2018-06-19T06:33:06.339Z,93640.59
2018-06-19T06:35:34.797Z,93645.09
2018-06-19T06:38:03.074Z,93649.53
2018-06-19T06:40:31.230Z,93646.06
2018-06-19T06:42:59.405Z,93643.46
2018-06-19T06:45:27.626Z,93650.41
2018-06-19T06:47:55.766Z,93642.28
2018-06-19T06:50:23.948Z,93646.50
2018-06-19T06:52:52.039Z,93642.44
2018-06-19T06:55:20.070Z,93639.01
2018-06-19T06:57:48.176Z,93642.14
2018-06-19T07:00:16.382Z,93646.59
2018-06-19T07:02:44.702Z,93643.73
2018-06-19T07:05:12.942Z,93648.93
2018-06-19T07:07:41.200Z,93645.47
2018-06-19T07:10:09.395Z,93646.54
2018-06-19T07:12:37.463Z,93654.02
2018-06-19T07:15:05.754Z,93648.04
2018-06-19T07:17:34.099Z,93650.34
2018-06-19T07:20:02.448Z,93653.27
2018-06-19T07:22:30.658Z,93651.77
2018-06-19T07:24:58.697Z,93650.69
2018-06-19T07:27:26.849Z,93649.30
2018-06-19T07:29:54.864Z,93650.65
2018-06-19T07:32:23.001Z,93648.27
2018-06-19T07:34:51.045Z,93644.55
2018-06-19T07:37:19.221Z,93640.12
2018-06-19T07:39:47.396Z,93652.47
2018-06-19T07:42:15.520Z,93645.45
2018-06-19T07:44:43.740Z,93651.92
2018-06-19T07:47:11.841Z,93643.99
2018-06-19T07:49:40.234Z,93653.50
2018-06-19T07:52:08.656Z,93650.28
2018-06-19T07:54:36.776Z,93644.75
2018-06-19T07:57:04.948Z,93644.23
2018-06-19T07:59:33.058Z,93647.09
2018-06-19T08:02:01.093Z,93647.39
2018-06-19T08:04:29.230Z,93654.13
2018-06-19T08:06:57.324Z,93651.20
2018-06-19T08:09:25.450Z,93643.30
2018-06-19T08:11:53.447Z,93641.70
2018-06-19T08:14:21.547Z,93646.27
2018-06-19T08:16:49.859Z,93643.84
2018-06-19T08:19:18.025Z,93644.17
2018-06-19T08:21:46.297Z,93649.11
2018-06-19T08:24:14.603Z,93648.30
2018-06-19T08:26:42.743Z,93654.41
2018-06-19T08:29:10.871Z,93647.60
2018-06-19T08:31:39.054Z,93651.73
2018-06-19T08:34:07.208Z,93649.29
2018-06-19T08:36:35.422Z,93642.63
2018-06-19T08:39:05.868Z,93645.50
2018-06-19T08:41:33.926Z,93645.03
2018-06-19T08:44:02.111Z,93651.73
2018-06-19T08:46:30.220Z,93650.03
2018-06-19T08:48:59.696Z,93645.90
2018-06-19T08:51:27.985Z,93643.82
2018-06-19T08:53:56.184Z,93646.97
2018-06-19T08:56:24.519Z,93649.02
2018-06-19T08:58:52.863Z,93647.61
2018-06-19T09:01:21.184Z,93643.42
2018-06-19T09:03:49.629Z,93651.03
2018-06-19T09:06:18.071Z,93643.17
2018-06-19T09:08:46.721Z,93645.72
2018-06-19T09:11:15.045Z,93648.00
2018-06-19T09:13:43.589Z,93643.28
2018-06-19T09:16:11.814Z,93646.20
2018-06-19T09:18:39.973Z,93643.78
2018-06-19T09:21:08.593Z,93646.14
2018-06-19T09:23:37.148Z,93644.89
2018-06-19T09:26:05.457Z,93643.70
2018-06-19T09:28:33.855Z,93641.92
2018-06-19T09:31:01.979Z,93641.06
2018-06-19T09:33:30.266Z,93638.23
2018-06-19T09:35:58.445Z,93627.23
2018-06-19T09:38:26.698Z,93625.75
2018-06-19T09:40:55.097Z,93621.83
2018-06-19T09:43:23.429Z,93621.09
2018-06-19T09:45:52.117Z,93621.20
2018-06-19T09:48:20.739Z,93615.43
2018-06-19T09:50:49.638Z,93611.01
2018-06-19T09:53:18.296Z,93617.06
2018-06-19T09:55:46.909Z,93613.83
2018-06-19T09:58:15.808Z,93607.39
2018-06-19T10:00:44.756Z,93612.83
2018-06-19T10:03:14.198Z,93613.61
2018-06-19T10:05:43.974Z,93611.55
2018-06-19T10:08:13.441Z,93609.50
2018-06-19T10:10:42.711Z,93616.23
2018-06-19T10:13:12.065Z,93616.13
2018-06-19T10:15:41.709Z,93608.20
2018-06-19T10:18:10.542Z,93611.14
2018-06-19T10:20:39.969Z,93600.13
2018-06-19T10:23:08.867Z,93605.25
2018-06-19T10:25:37.519Z,93602.02
2018-06-19T10:28:07.976Z,93603.94
2018-06-19T10:30:36.862Z,93601.21
2018-06-19T10:33:05.808Z,93600.59
2018-06-19T10:35:34.354Z,93595.52
2018-06-19T10:38:02.881Z,93598.17
2018-06-19T10:40:32.129Z,93600.99
2018-06-19T10:43:01.179Z,93590.59
2018-06-19T10:45:29.891Z,93592.02
2018-06-19T10:47:58.317Z,93589.31
2018-06-19T10:50:26.810Z,93581.59
2018-06-19T10:52:55.057Z,93581.22
2018-06-19T10:55:23.796Z,93576.65
2018-06-19T10:57:52.188Z,93577.23
2018-06-19T11:00:20.614Z,93587.53
2018-06-19T11:02:48.747Z,93578.53
2018-06-19T11:05:17.118Z,93586.00
2018-06-19T11:07:45.262Z,93587.92
2018-06-19T11:10:13.660Z,93578.71
2018-06-19T11:12:42.170Z,93578.33
2018-06-19T11:15:10.534Z,93586.80
2018-06-19T11:17:38.878Z,93601.66
2018-06-19T11:20:07.173Z,93611.34
2018-06-19T11:22:35.443Z,93604.04
2018-06-19T11:25:04.027Z,93593.75
2018-06-19T11:27:32.569Z,93605.98
2018-06-19T11:30:00.769Z,93612.99
2018-06-19T11:32:29.000Z,93605.66
2018-06-19T11:34:57.215Z,93623.44
2018-06-19T11:37:25.591Z,93620.48
2018-06-19T11:39:53.722Z,93626.45
2018-06-19T11:42:22.046Z,93637.17
2018-06-19T11:44:50.095Z,93636.01
2018-06-19T11:47:18.371Z,93633.67
2018-06-19T11:49:46.509Z,93621.28
2018-06-19T11:52:14.745Z,93626.23
2018-06-19T11:54:43.023Z,93622.71
2018-06-19T11:57:11.038Z,93628.34
2018-06-19T11:59:39.068Z,93621.53
2018-06-19T12:02:07.687Z,93625.09
2018-06-19T12:04:35.945Z,93625.12
2018-06-19T12:07:04.172Z,93618.30
2018-06-19T12:09:32.387Z,93609.96
2018-06-19T12:12:00.704Z,93613.52
2018-06-19T12:14:29.063Z,93607.86
2018-06-19T12:16:57.570Z,93598.54
2018-06-19T12:19:26.044Z,93596.55
2018-06-19T12:21:54.332Z,93597.63
2018-06-19T12:24:22.547Z,93593.30
2018-06-19T12:26:50.909Z,93590.48
2018-06-19T12:29:19.239Z,93581.62
2018-06-19T12:31:47.442Z,93584.05
2018-06-19T12:34:15.641Z,93571.23
2018-06-19T12:36:43.874Z,93573.14
2018-06-19T12:39:12.584Z,93571.21
2018-06-19T12:41:47.555Z,93567.83
2018-06-19T12:44:15.675Z,93568.74
2018-06-19T12:46:43.940Z,93575.61
2018-06-19T12:49:12.097Z,93564.03
2018-06-19T12:51:53.189Z,93560.80
2018-06-19T12:55:30.260Z,93565.73
2018-06-19T12:57:58.430Z,93556.42
2018-06-19T13:00:26.546Z,93553.11
2018-06-19T13:03:05.905Z,93554.89
2018-06-19T13:05:45.041Z,93548.74
2018-06-19T13:08:13.437Z,93532.44
2018-06-19T13:10:41.644Z,93524.41
2018-06-19T13:13:22.816Z,93522.28
2018-06-19T13:15:51.765Z,93525.79
2018-06-19T13:18:32.018Z,93533.52
2018-06-19T13:21:00.402Z,93536.84
2018-06-19T13:23:28.910Z,93539.91
2018-06-19T13:25:57.170Z,93532.87
2018-06-19T13:29:41.773Z,93519.62
2018-06-19T13:32:09.914Z,93513.95
2018-06-19T13:34:38.296Z,93519.64
2018-06-19T13:37:06.786Z,93539.95
2018-06-19T13:39:35.679Z,93544.15
2018-06-19T13:42:15.862Z,93556.78
2018-06-19T13:45:07.208Z,93563.86
2018-06-19T13:47:35.479Z,93563.89
2018-06-19T13:50:03.638Z,93556.27
2018-06-19T13:52:31.726Z,93553.73
2018-06-19T13:57:21.246Z,93560.86
2018-06-19T13:59:49.841Z,93564.84
2018-06-19T14:02:19.471Z,93558.00
2018-06-19T14:04:48.548Z,93550.90
2018-06-19T14:07:17.232Z,93542.46
2018-06-19T14:09:56.925Z,93533.62
2018-06-19T14:12:39.504Z,93534.15
2018-06-19T14:15:11.646Z,93544.48
2018-06-19T14:17:40.643Z,93548.41
2018-06-19T14:20:09.542Z,93549.64
2018-06-19T14:22:38.165Z,93544.65
2018-06-19T14:25:06.445Z,93551.03
2018-06-19T14:27:34.946Z,93563.66
2018-06-19T14:30:03.243Z,93558.73
2018-06-19T14:32:31.731Z,93580.48
2018-06-19T14:35:00.287Z,93555.32
2018-06-19T14:37:29.069Z,93542.24
2018-06-19T14:39:58.001Z,93552.95
2018-06-19T14:42:26.412Z,93559.99
2018-06-19T14:44:55.170Z,93561.98
2018-06-19T14:47:23.694Z,93547.66
2018-06-19T14:49:52.274Z,93545.83
2018-06-19T14:52:20.825Z,93543.56
2018-06-19T14:54:49.594Z,93531.39
2018-06-19T14:57:17.986Z,93510.93
2018-06-19T14:59:46.220Z,93510.09
2018-06-19T15:02:14.634Z,93520.31
2018-06-19T15:04:42.923Z,93515.59
2018-06-19T15:07:11.234Z,93525.91
2018-06-19T15:09:40.245Z,93533.31
2018-06-19T15:12:08.792Z,93546.42
2018-06-19T15:14:37.930Z,93554.19
2018-06-19T15:17:06.164Z,93558.36
2018-06-19T15:19:34.463Z,93566.66
2018-06-19T15:22:02.742Z,93565.99
2018-06-19T15:24:30.855Z,93565.47
2018-06-19T15:26:58.989Z,93568.45
2018-06-19T15:29:27.299Z,93559.20
2018-06-19T15:31:55.536Z,93569.45
2018-06-19T15:34:23.812Z,93568.11
2018-06-19T15:36:52.032Z,93571.08
2018-06-19T15:39:20.316Z,93579.75
2018-06-19T15:41:48.594Z,93581.72
2018-06-19T15:44:16.884Z,93584.72
2018-06-19T15:46:45.118Z,93575.61
2018-06-19T15:49:13.278Z,93568.48
2018-06-19T15:51:41.499Z,93572.12
2018-06-19T15:54:09.724Z,93572.12
2018-06-19T15:56:38.189Z,93580.09
2018-06-19T15:59:06.395Z,93580.21
2018-06-19T16:01:34.605Z,93571.43
2018-06-19T16:04:02.784Z,93575.23
2018-06-19T16:06:31.064Z,93580.20
2018-06-19T16:08:59.542Z,93585.63
2018-06-19T16:11:27.708Z,93588.57
2018-06-19T16:13:55.848Z,93587.27
2018-06-19T16:16:24.073Z,93600.66
2018-06-19T16:18:52.284Z,93599.91
2018-06-19T16:21:20.531Z,93605.82
2018-06-19T16:23:49.111Z,93614.41
2018-06-19T16:26:18.343Z,93609.44
2018-06-19T16:28:46.580Z,93609.80
2018-06-19T16:31:14.854Z,93618.62
2018-06-19T16:33:43.221Z,93620.95
2018-06-19T16:36:11.438Z,93620.11
2018-06-19T16:38:39.707Z,93620.30
2018-06-19T16:41:07.972Z,93622.28
2018-06-19T16:43:36.647Z,93624.58
2018-06-19T16:46:04.994Z,93624.75
2018-06-19T16:48:33.409Z,93629.55
2018-06-19T16:51:02.015Z,93625.39
2018-06-19T16:53:30.703Z,93623.88
2018-06-19T16:55:59.017Z,93632.11
2018-06-19T16:58:27.330Z,93630.89
2018-06-19T17:03:23.403Z,93643.11
2018-06-19T17:05:51.685Z,93643.27
2018-06-19T17:08:20.039Z,93651.53
2018-06-19T17:10:48.572Z,93656.19
2018-06-19T17:13:16.895Z,93660.80
2018-06-19T17:15:45.675Z,93664.58
2018-06-19T17:18:14.047Z,93665.03
2018-06-19T17:20:42.772Z,93675.48
2018-06-19T17:23:11.061Z,93673.67
2018-06-19T17:25:39.182Z,93674.99
2018-06-19T17:28:07.482Z,93675.90
2018-06-19T17:30:35.776Z,93685.94
2018-06-19T17:33:04.051Z,93683.69
2018-06-19T17:35:32.321Z,93684.27
2018-06-19T17:38:00.497Z,93684.29
2018-06-19T17:40:29.141Z,93684.67
2018-06-19T17:42:57.737Z,93680.88
2018-06-19T17:45:26.387Z,93676.89
2018-06-19T17:47:54.949Z,93679.57
2018-06-19T17:50:23.199Z,93679.75
2018-06-19T17:52:51.515Z,93681.57
2018-06-19T17:55:19.944Z,93670.64
2018-06-19T17:57:48.435Z,93675.39
2018-06-19T18:00:17.035Z,93679.56
2018-06-19T18:02:45.419Z,93684.03
2018-06-19T18:05:13.608Z,93681.89
2018-06-19T18:07:41.832Z,93691.29
2018-06-19T18:10:10.087Z,93689.26
2018-06-19T18:12:38.267Z,93696.89
2018-06-19T18:15:07.036Z,93702.78
2018-06-19T18:17:35.684Z,93695.31
2018-06-19T18:20:03.963Z,93706.63
2018-06-19T18:22:32.203Z,93708.08
2018-06-19T18:25:00.620Z,93703.09
2018-06-19T18:27:28.928Z,93707.09
2018-06-19T18:29:57.264Z,93702.27
2018-06-19T18:32:25.856Z,93704.04
2018-06-19T18:34:54.438Z,93711.50
2018-06-19T18:37:22.840Z,93713.90
2018-06-19T18:39:51.000Z,93721.22
2018-06-19T18:42:19.340Z,93729.46
2018-06-19T18:44:48.081Z,93729.23
2018-06-19T18:47:16.590Z,93736.42
2018-06-19T18:49:45.151Z,93739.95
2018-06-19T18:52:13.522Z,93740.21
2018-06-19T18:54:41.940Z,93745.03
2018-06-19T18:57:10.283Z,93745.70
2018-06-19T18:59:39.924Z,93746.32
2018-06-19T19:02:08.390Z,93753.84
2018-06-19T19:04:36.640Z,93755.45
2018-06-19T19:07:04.982Z,93764.85
2018-06-19T19:09:33.429Z,93767.77
2018-06-19T19:12:01.748Z,93761.41
2018-06-19T19:14:34.577Z,93767.06
2018-06-19T19:17:08.926Z,93767.65
2018-06-19T19:19:37.468Z,93759.31
2018-06-19T19:22:05.990Z,93769.37
2018-06-19T19:24:34.203Z,93774.75
2018-06-19T19:27:08.203Z,93780.13
2018-06-19T19:29:42.004Z,93771.91
2018-06-19T19:32:10.858Z,93776.59
2018-06-19T19:34:39.119Z,93777.33
2018-06-19T19:37:13.032Z,93781.18
2018-06-19T19:39:43.146Z,93787.99
2018-06-19T19:42:11.618Z,93796.58
2018-06-19T19:44:39.925Z,93802.59
2018-06-19T19:47:13.608Z,93793.16
2018-06-19T19:49:42.019Z,93796.03
2018-06-19T19:52:11.118Z,93796.85
2018-06-19T19:54:39.711Z,93795.78
2018-06-19T19:57:13.235Z,93794.13
2018-06-19T19:59:41.571Z,93795.11
2018-06-19T20:02:09.961Z,93800.48
2018-06-19T20:04:38.229Z,93807.75
2018-06-19T20:07:06.715Z,93813.03
2018-06-19T20:09:34.956Z,93814.56
2018-06-19T20:12:03.175Z,93816.79
2018-06-19T20:14:31.321Z,93814.66
2018-06-19T20:16:59.620Z,93816.33
2018-06-19T20:19:27.837Z,93814.47
2018-06-19T20:21:56.517Z,93816.84
2018-06-19T20:24:25.060Z,93819.47
2018-06-19T20:26:53.783Z,93825.31
2018-06-19T20:29:22.011Z,93827.33
2018-06-19T20:31:50.238Z,93823.97
2018-06-19T20:34:18.433Z,93830.07
2018-06-19T20:36:46.820Z,93829.98
2018-06-19T20:39:14.913Z,93826.86
2018-06-19T20:41:43.073Z,93831.75
2018-06-19T20:44:11.252Z,93832.60
2018-06-19T20:46:39.486Z,93828.57
2018-06-19T20:49:07.611Z,93828.33
2018-06-19T20:51:35.704Z,93833.70
2018-06-19T20:54:03.905Z,93829.20
2018-06-19T20:56:32.218Z,93827.67
2018-06-19T20:59:00.671Z,93827.70
2018-06-19T21:01:28.816Z,93819.23
2018-06-19T21:03:57.044Z,93824.83
2018-06-19T21:06:25.286Z,93826.38
2018-06-19T21:08:53.486Z,93823.15
2018-06-19T21:11:22.192Z,93831.46
2018-06-19T21:13:50.541Z,93834.06
2018-06-19T21:16:18.733Z,93831.34
2018-06-19T21:18:47.210Z,93831.36
2018-06-19T21:21:15.366Z,93832.22
2018-06-19T21:23:43.980Z,93836.49
2018-06-19T21:26:12.257Z,93840.55
2018-06-19T21:28:40.309Z,93843.78
2018-06-19T21:31:08.378Z,93847.12
2018-06-19T21:33:36.792Z,93840.13
2018-06-19T21:36:05.044Z,93843.11
2018-06-19T21:38:33.115Z,93848.24
2018-06-19T21:41:01.275Z,93849.67
2018-06-19T21:43:29.676Z,93845.64
2018-06-19T21:45:58.395Z,93851.48
2018-06-19T21:48:26.548Z,93855.06
2018-06-19T21:50:54.993Z,93852.92
2018-06-19T21:53:23.087Z,93847.34
2018-06-19T21:55:51.362Z,93851.13
2018-06-19T21:58:19.487Z,93843.73
2018-06-19T22:00:48.103Z,93846.38
2018-06-19T22:03:16.219Z,93846.05
2018-06-19T22:05:44.639Z,93848.69
2018-06-19T22:08:12.698Z,93844.40
2018-06-19T22:10:40.783Z,93848.95
2018-06-19T22:13:08.916Z,93853.48
2018-06-19T22:15:37.163Z,93852.66
2018-06-19T22:18:05.373Z,93855.18
2018-06-19T22:20:33.719Z,93853.95
2018-06-19T22:23:01.877Z,93853.47
2018-06-19T22:25:30.738Z,93855.61
2018-06-19T22:27:59.025Z,93856.33
2018-06-19T22:30:27.055Z,93857.19
2018-06-19T22:32:55.289Z,93859.80
2018-06-19T22:35:23.347Z,93857.07
2018-06-19T22:37:51.472Z,93860.73
2018-06-19T22:40:19.656Z,93858.26
2018-06-19T22:42:47.869Z,93855.03
2018-06-19T22:45:15.921Z,93864.42
2018-06-19T22:47:44.055Z,93865.95
2018-06-19T22:50:12.153Z,93864.19
2018-06-19T22:52:40.309Z,93864.41
2018-06-19T22:55:08.486Z,93862.02
2018-06-19T22:57:36.550Z,93868.00
2018-06-19T23:00:04.854Z,93864.51
2018-06-19T23:02:32.916Z,93869.62
2018-06-19T23:05:00.940Z,93871.41
2018-06-19T23:07:28.932Z,93867.59
2018-06-19T23:09:57.150Z,93866.39
2018-06-19T23:12:25.317Z,93866.16
2018-06-19T23:14:53.352Z,93866.86
2018-06-19T23:17:21.340Z,93869.23
2018-06-19T23:19:49.499Z,93868.73
2018-06-19T23:22:17.501Z,93868.13
2018-06-19T23:24:45.502Z,93869.20
2018-06-19T23:27:13.545Z,93867.28
2018-06-19T23:29:41.538Z,93864.54
2018-06-19T23:32:09.717Z,93868.09
2018-06-19T23:34:37.757Z,93866.56
2018-06-19T23:37:05.803Z,93865.13
2018-06-19T23:39:33.883Z,93866.14
2018-06-19T23:42:01.984Z,93868.68
2018-06-19T23:44:30.085Z,93866.63
2018-06-19T23:46:58.171Z,93862.20
2018-06-19T23:49:26.214Z,93857.66
2018-06-19T23:51:54.218Z,93861.58
2018-06-19T23:54:22.274Z,93857.66
2018-06-19T23:56:50.309Z,93861.23
2018-06-19T23:59:18.359Z,93868.81
